Time;durP1;ratioP1;P1;durP2;ratioP2;P2;SDS_P1;SDS_P2;PMS_P1;PMS_P2;Temp;Humidity;BMP_temperature;BMP_pressure;BME280_temperature;BME280_humidity;BME280_pressure;Samples;Min_cycle;Max_cycle;Signal;HPM_P1;HPM_P2
2021/03/04 00:00:44;;;;;;;98.37;53.30;;;;;;;4.09;75.10;100183.16;124621;1105;104402;-77
2021/03/04 00:03:18;;;;;;;92.37;52.00;;;;;;;4.08;75.22;100184.03;124702;1105;102698;-77
2021/03/04 00:05:45;;;;;;;102.40;54.87;;;;;;;4.08;75.31;100173.71;124635;1105;105027;-77
2021/03/04 00:08:14;;;;;;;101.73;53.37;;;;;;;4.09;74.80;100178.00;124747;1103;104111;-78
2021/03/04 00:10:41;;;;;;;101.83;54.90;;;;;;;4.09;75.06;100161.66;124655;1106;104712;-78
2021/03/04 00:13:08;;;;;;;102.93;55.37;;;;;;;4.11;74.74;100153.03;124659;1106;104293;-78
2021/03/04 00:15:36;;;;;;;105.75;54.93;;;;;;;4.11;74.89;100147.88;124535;1103;104320;-78
2021/03/04 00:18:05;;;;;;;98.63;54.33;;;;;;;4.11;74.63;100144.44;124682;1105;104120;-78
2021/03/04 00:20:33;;;;;;;94.40;51.73;;;;;;;4.09;74.72;100139.29;124656;1105;104249;-78
2021/03/04 00:23:01;;;;;;;91.73;51.80;;;;;;;4.10;74.80;100132.41;124750;1103;104269;-78
2021/03/04 00:25:32;;;;;;;92.03;50.90;;;;;;;4.08;75.00;100137.58;124706;1102;104203;-77
2021/03/04 00:27:59;;;;;;;92.30;51.40;;;;;;;4.06;74.56;100129.00;124571;1105;105320;-78
2021/03/04 00:30:27;;;;;;;100.63;52.90;;;;;;;4.06;74.77;100130.72;124679;1105;105059;-78
2021/03/04 00:32:55;;;;;;;97.17;51.63;;;;;;;4.05;75.13;100127.28;124586;1105;104320;-78
2021/03/04 00:35:24;;;;;;;97.80;53.77;;;;;;;4.04;75.24;100122.99;124705;1105;104576;-78
2021/03/04 00:37:51;;;;;;;95.03;52.33;;;;;;;4.04;74.92;100117.83;124550;1105;104287;-78
2021/03/04 00:40:21;;;;;;;103.87;53.77;;;;;;;4.04;74.95;100119.56;124635;1105;104274;-78
2021/03/04 00:42:48;;;;;;;91.40;50.40;;;;;;;4.02;75.03;100116.99;124649;1105;104150;-78
2021/03/04 00:45:18;;;;;;;90.33;50.77;;;;;;;4.01;75.09;100120.44;124600;1105;104185;-78
2021/03/04 00:48:07;;;;;;;99.93;52.87;;;;;;;3.98;75.34;100111.87;124653;1105;104297;-78
2021/03/04 00:50:36;;;;;;;94.13;51.03;;;;;;;3.96;74.95;100104.14;124897;1105;104149;-78
2021/03/04 00:53:03;;;;;;;94.00;51.97;;;;;;;3.96;74.89;100104.14;124602;1105;104232;-78
2021/03/04 00:55:32;;;;;;;93.83;50.10;;;;;;;3.95;74.96;100097.28;124675;1104;104194;-77
2021/03/04 00:58:00;;;;;;;92.70;50.30;;;;;;;3.95;75.26;100089.53;124556;1105;104156;-78
2021/03/04 01:00:27;;;;;;;87.10;50.27;;;;;;;3.94;74.84;100085.21;124699;1105;104153;-77
2021/03/04 01:02:55;;;;;;;90.90;49.63;;;;;;;3.94;75.04;100085.21;124501;1106;104272;-77
2021/03/04 01:05:23;;;;;;;91.93;50.97;;;;;;;3.94;75.22;100074.89;124653;1105;104315;-77
2021/03/04 01:07:51;;;;;;;83.43;48.07;;;;;;;3.93;75.17;100078.34;124591;1105;104261;-78
2021/03/04 01:10:27;;;;;;;89.47;49.67;;;;;;;3.93;74.57;100075.77;124680;1105;104155;-78
2021/03/04 01:12:54;;;;;;;90.93;48.77;;;;;;;3.92;74.54;100072.33;124568;1105;104293;-77
2021/03/04 01:15:22;;;;;;;87.23;46.90;;;;;;;3.92;75.20;100071.47;124648;1105;104211;-77
2021/03/04 01:17:51;;;;;;;91.37;49.73;;;;;;;3.91;74.55;100064.60;124564;1105;104309;-77
2021/03/04 01:20:19;;;;;;;89.03;47.60;;;;;;;3.89;74.88;100062.03;124764;1105;104238;-77
2021/03/04 01:22:47;;;;;;;96.13;49.40;;;;;;;3.89;75.03;100050.86;124783;1105;104229;-77
2021/03/04 01:25:16;;;;;;;88.00;48.70;;;;;;;3.89;74.56;100045.70;124746;1105;105328;-78
2021/03/04 01:27:44;;;;;;;86.57;48.07;;;;;;;3.88;74.66;100050.00;124735;1105;104346;-78
2021/03/04 01:30:14;;;;;;;90.73;49.10;;;;;;;3.86;75.08;100045.73;124655;1105;104149;-78
2021/03/04 01:32:42;;;;;;;90.50;49.90;;;;;;;3.84;74.53;100038.00;124824;1106;104184;-78
2021/03/04 01:35:10;;;;;;;84.33;48.30;;;;;;;3.83;75.13;100043.18;124685;1106;105391;-78
2021/03/04 01:37:37;;;;;;;91.63;48.40;;;;;;;3.81;74.83;100037.19;124706;1105;104179;-78
2021/03/04 01:40:07;;;;;;;82.83;45.57;;;;;;;3.80;75.09;100027.73;124531;1105;104056;-78
2021/03/04 01:42:35;;;;;;;84.67;46.60;;;;;;;3.77;75.25;100020.88;124699;1105;104101;-78
2021/03/04 01:45:06;;;;;;;82.73;45.27;;;;;;;3.75;75.00;100029.47;124627;1105;104172;-78
2021/03/04 01:47:39;;;;;;;87.77;47.57;;;;;;;3.74;75.05;100026.03;124677;1105;104283;-78
2021/03/04 01:50:09;;;;;;;87.43;47.37;;;;;;;3.75;74.84;100012.27;124679;1105;104185;-78
2021/03/04 01:52:37;;;;;;;84.37;46.57;;;;;;;3.74;75.23;100007.13;124656;1105;104287;-78
2021/03/04 01:55:06;;;;;;;83.63;44.10;;;;;;;3.73;74.63;100014.01;124520;1106;104130;-78
2021/03/04 01:57:33;;;;;;;82.97;44.33;;;;;;;3.73;74.61;100007.99;124697;1105;104146;-78
2021/03/04 02:00:01;;;;;;;82.33;44.70;;;;;;;3.70;75.02;100008.88;124577;1105;104190;-78
2021/03/04 02:02:36;;;;;;;78.13;43.13;;;;;;;3.68;75.12;100000.30;124661;1105;104239;-78
2021/03/04 02:05:07;;;;;;;88.07;45.43;;;;;;;3.68;74.69;99999.45;124478;1106;104162;-77
2021/03/04 02:07:55;;;;;;;82.93;44.80;;;;;;;3.66;75.23;99994.30;124689;1105;104233;-77
2021/03/04 02:10:29;;;;;;;79.57;43.63;;;;;;;3.63;75.06;99995.19;124673;1105;104159;-78
2021/03/04 02:13:12;;;;;;;79.20;43.13;;;;;;;3.61;74.94;99988.34;124660;1105;104137;-78
2021/03/04 02:15:51;;;;;;;78.93;43.17;;;;;;;3.60;75.00;99986.63;124669;1105;104242;-77
2021/03/04 02:18:21;;;;;;;79.27;42.43;;;;;;;3.57;75.35;99984.91;124646;1105;104130;-77
2021/03/04 02:21:04;;;;;;;78.03;43.40;;;;;;;3.55;74.73;99976.33;124635;1105;104322;-77
2021/03/04 02:23:56;;;;;;;76.13;42.13;;;;;;;3.54;75.42;99977.20;124682;1105;103992;-76
2021/03/04 02:26:23;;;;;;;80.53;43.33;;;;;;;3.51;75.16;99961.75;124693;1105;104235;-78
2021/03/04 02:28:55;;;;;;;81.40;42.23;;;;;;;3.51;75.17;99966.91;124659;1105;104201;-78
2021/03/04 02:31:22;;;;;;;82.95;44.35;;;;;;;3.51;75.60;99966.91;124641;1105;104272;-78
2021/03/04 02:33:51;;;;;;;77.43;42.23;;;;;;;3.51;75.37;99964.34;124685;1105;104233;-78
2021/03/04 02:36:20;;;;;;;78.37;44.43;;;;;;;3.49;75.52;99960.92;124732;1105;104130;-78
2021/03/04 02:38:48;;;;;;;78.93;42.70;;;;;;;3.48;75.16;99960.94;124839;1104;104175;-78
2021/03/04 02:41:15;;;;;;;72.93;40.17;;;;;;;3.46;75.18;99958.38;124691;1105;102689;-77
2021/03/04 02:43:43;;;;;;;77.10;41.53;;;;;;;3.43;75.04;99955.82;124655;1106;105122;-77
2021/03/04 02:46:11;;;;;;;77.43;41.57;;;;;;;3.44;75.17;99954.95;124713;1105;104259;-77
2021/03/04 02:48:40;;;;;;;76.80;40.63;;;;;;;3.44;75.26;99951.52;124694;1105;104228;-77
2021/03/04 02:51:09;;;;;;;72.07;39.20;;;;;;;3.45;75.50;99945.49;124743;1105;104274;-77
2021/03/04 02:53:37;;;;;;;76.60;40.60;;;;;;;3.45;75.13;99950.65;124729;1106;104309;-77
2021/03/04 02:56:06;;;;;;;75.20;40.73;;;;;;;3.44;75.40;99944.64;124717;1105;104248;-78
2021/03/04 02:58:35;;;;;;;70.40;39.05;;;;;;;3.45;75.19;99936.03;124666;1105;104307;-78
2021/03/04 03:01:03;;;;;;;72.23;38.73;;;;;;;3.48;75.43;99941.16;124628;1105;104223;-78
2021/03/04 03:03:31;;;;;;;74.07;39.60;;;;;;;3.49;75.46;99937.71;124685;1105;104251;-78
2021/03/04 03:06:02;;;;;;;78.10;40.60;;;;;;;3.50;75.08;99934.27;124670;1105;104235;-78
2021/03/04 03:08:30;;;;;;;72.13;40.07;;;;;;;3.50;75.14;99926.53;124692;1105;104184;-78
2021/03/04 03:11:01;;;;;;;64.95;36.15;;;;;;;3.50;75.37;99918.80;124725;1105;103420;-78
2021/03/04 03:13:29;;;;;;;69.90;37.40;;;;;;;3.50;75.54;99917.94;124799;1105;104124;-78
2021/03/04 03:15:56;;;;;;;72.53;38.77;;;;;;;3.49;75.27;99918.81;124834;1106;103954;-78
2021/03/04 03:18:24;;;;;;;71.27;37.77;;;;;;;3.49;75.50;99917.09;124781;1105;104302;-78
2021/03/04 03:20:51;;;;;;;72.13;37.67;;;;;;;3.52;75.39;99921.36;124651;1105;106333;-78
2021/03/04 03:23:19;;;;;;;68.60;37.10;;;;;;;3.51;75.64;99912.77;124637;1105;104326;-78
2021/03/04 03:25:46;;;;;;;77.00;38.15;;;;;;;3.52;75.89;99909.31;124664;1106;104152;-77
2021/03/04 03:28:14;;;;;;;66.90;36.47;;;;;;;3.52;75.17;99904.16;124684;1106;104222;-77
2021/03/04 03:30:41;;;;;;;65.40;36.30;;;;;;;3.54;75.54;99905.00;124694;1105;104147;-77
2021/03/04 03:33:12;;;;;;;68.07;36.43;;;;;;;3.53;75.11;99902.44;124695;1105;104259;-77
2021/03/04 03:35:40;;;;;;;61.50;33.20;;;;;;;3.52;75.33;99900.73;124784;1105;104156;-77
2021/03/04 03:38:09;;;;;;;66.97;35.63;;;;;;;3.51;75.52;99892.14;124736;1105;104000;-77
2021/03/04 03:40:39;;;;;;;66.93;35.77;;;;;;;3.51;75.44;99894.72;124612;1105;104233;-77
2021/03/04 03:43:10;;;;;;;72.60;40.23;;;;;;;3.52;75.49;99890.42;124671;1106;104178;-77
2021/03/04 03:45:40;;;;;;;71.70;37.83;;;;;;;3.54;75.34;99889.53;124752;1106;104245;-77
2021/03/04 03:48:11;;;;;;;68.23;36.03;;;;;;;3.54;75.90;99894.69;124655;1105;104161;-77
2021/03/04 03:50:42;;;;;;;72.70;35.47;;;;;;;3.55;75.22;99880.92;124729;1105;104133;-77
2021/03/04 03:53:13;;;;;;;64.70;36.17;;;;;;;3.55;75.85;99878.34;124666;1105;105810;-77
2021/03/04 03:55:44;;;;;;;64.60;34.00;;;;;;;3.55;75.90;99870.61;124742;1105;104296;-77
2021/03/04 03:58:13;;;;;;;64.57;35.43;;;;;;;3.56;75.31;99866.30;124686;1105;104243;-77
2021/03/04 04:00:41;;;;;;;62.60;35.53;;;;;;;3.57;75.88;99868.86;124715;1106;104395;-78
2021/03/04 04:03:09;;;;;;;66.43;35.70;;;;;;;3.57;75.67;99862.86;124685;1105;104305;-78
2021/03/04 04:05:38;;;;;;;68.35;35.25;;;;;;;3.57;75.94;99860.28;124697;1105;104300;-78
2021/03/04 04:08:05;;;;;;;67.77;35.57;;;;;;;3.58;76.09;99862.84;124706;1105;104229;-78
2021/03/04 04:10:34;;;;;;;63.97;34.67;;;;;;;3.58;75.54;99865.41;124705;1105;104330;-78
2021/03/04 04:13:02;;;;;;;66.40;35.50;;;;;;;3.59;75.63;99867.16;124549;1106;104138;-78
2021/03/04 04:15:30;;;;;;;66.70;35.57;;;;;;;3.58;75.83;99855.10;124684;1106;104239;-78
2021/03/04 04:18:00;;;;;;;67.85;37.60;;;;;;;3.59;76.15;99849.11;124690;1105;104212;-78
2021/03/04 04:20:47;;;;;;;64.20;35.57;;;;;;;3.61;75.76;99849.94;124693;1105;102330;-79
2021/03/04 04:23:15;;;;;;;61.57;34.37;;;;;;;3.62;75.70;99836.17;124776;1105;104612;-79
2021/03/04 04:25:48;;;;;;;70.43;36.47;;;;;;;3.63;76.11;99840.45;124717;1105;104290;-79
2021/03/04 04:28:17;;;;;;;65.40;34.70;;;;;;;3.64;75.70;99842.17;124730;1104;102035;-78
2021/03/04 04:30:44;;;;;;;66.30;36.60;;;;;;;3.67;75.93;99838.70;124668;1105;104184;-78
2021/03/04 04:33:12;;;;;;;66.80;35.90;;;;;;;3.70;75.69;99836.08;124705;1105;104756;-78
2021/03/04 04:35:41;;;;;;;65.60;35.87;;;;;;;3.72;75.87;99841.22;124727;1105;104236;-78
2021/03/04 04:38:09;;;;;;;68.60;37.70;;;;;;;3.72;76.09;99828.33;124702;1105;104258;-78
2021/03/04 04:40:37;;;;;;;67.57;35.77;;;;;;;3.74;76.02;99829.16;124691;1105;104144;-78
2021/03/04 04:43:04;;;;;;;66.83;35.57;;;;;;;3.75;75.33;99821.40;124757;1105;104149;-78
2021/03/04 04:45:32;;;;;;;62.13;34.07;;;;;;;3.77;75.67;99823.95;124674;1105;104338;-78
2021/03/04 04:47:59;;;;;;;66.57;36.10;;;;;;;3.78;75.55;99823.97;124721;1106;104249;-79
2021/03/04 04:50:26;;;;;;;67.70;34.40;;;;;;;3.79;75.96;99820.52;124448;1105;104316;-78
2021/03/04 04:52:54;;;;;;;59.67;33.00;;;;;;;3.80;75.25;99821.37;124677;1105;104661;-78
2021/03/04 04:55:21;;;;;;;65.50;34.63;;;;;;;3.83;75.78;99823.91;124635;1105;104293;-78
2021/03/04 04:57:49;;;;;;;62.27;34.00;;;;;;;3.83;75.09;99818.75;124667;1105;104242;-78
2021/03/04 05:00:17;;;;;;;58.70;32.85;;;;;;;3.81;75.14;99817.92;124706;1105;104255;-79
2021/03/04 05:02:44;;;;;;;58.90;32.53;;;;;;;3.80;75.42;99805.89;124659;1105;104248;-78
2021/03/04 05:05:12;;;;;;;61.07;33.67;;;;;;;3.79;75.78;99802.46;124631;1105;104210;-78
2021/03/04 05:07:39;;;;;;;57.50;32.70;;;;;;;3.78;75.59;99802.48;124678;1105;104768;-77
2021/03/04 05:10:08;;;;;;;57.35;32.63;;;;;;;3.79;75.64;99796.45;124638;1106;104191;-77
2021/03/04 05:12:36;;;;;;;62.63;33.63;;;;;;;3.81;75.67;99795.55;124722;1105;103013;-78
2021/03/04 05:15:05;;;;;;;59.83;33.43;;;;;;;3.84;75.65;99792.08;124636;1105;104288;-77
2021/03/04 05:17:34;;;;;;;59.90;33.87;;;;;;;3.89;75.75;99790.29;124810;1105;104258;-78
2021/03/04 05:20:03;;;;;;;62.97;34.30;;;;;;;3.91;75.48;99796.28;124682;1105;104144;-78
2021/03/04 05:22:32;;;;;;;61.90;34.27;;;;;;;3.93;75.58;99785.06;124696;1105;104190;-78
2021/03/04 05:25:00;;;;;;;58.77;32.50;;;;;;;3.95;75.59;99777.33;124648;1105;104904;-78
2021/03/04 05:27:27;;;;;;;56.43;31.23;;;;;;;3.96;75.83;99768.72;124636;1105;104126;-78
2021/03/04 05:29:54;;;;;;;56.63;32.70;;;;;;;4.00;75.68;99774.69;124664;1105;104153;-78
2021/03/04 05:32:21;;;;;;;60.40;33.10;;;;;;;4.01;75.52;99763.48;124450;1106;104155;-77
2021/03/04 05:34:49;;;;;;;52.40;30.55;;;;;;;4.04;75.56;99766.02;124732;1105;104118;-77
2021/03/04 05:37:16;;;;;;;60.33;31.57;;;;;;;4.07;75.59;99766.83;124647;1105;104332;-77
2021/03/04 05:39:43;;;;;;;55.30;32.27;;;;;;;4.07;75.42;99771.14;124629;1105;104289;-78
2021/03/04 05:42:11;;;;;;;61.87;32.60;;;;;;;4.08;75.39;99772.84;124637;1106;104229;-79
2021/03/04 05:44:38;;;;;;;58.47;32.47;;;;;;;4.08;75.69;99768.53;124659;1105;104315;-79
2021/03/04 05:47:05;;;;;;;56.20;30.80;;;;;;;4.09;74.88;99756.48;124682;1105;104178;-79
2021/03/04 05:49:40;;;;;;;57.50;31.83;;;;;;;4.09;75.61;99759.91;124672;1105;104236;-79
2021/03/04 05:52:08;;;;;;;56.13;31.53;;;;;;;4.13;74.97;99763.30;124653;1106;104360;-78
2021/03/04 05:54:38;;;;;;;57.83;33.33;;;;;;;4.14;74.92;99767.63;124721;1105;104166;-78
2021/03/04 05:57:07;;;;;;;56.33;30.93;;;;;;;4.15;75.38;99769.33;124688;1105;104220;-78
2021/03/04 05:59:35;;;;;;;61.37;33.13;;;;;;;4.19;75.19;99764.09;124713;1105;104160;-78
2021/03/04 06:02:05;;;;;;;55.55;30.85;;;;;;;4.22;75.51;99766.63;124613;1105;104249;-77
2021/03/04 06:04:33;;;;;;;57.93;31.10;;;;;;;4.25;75.44;99771.73;124573;1105;104098;-77
2021/03/04 06:07:00;;;;;;;54.97;31.37;;;;;;;4.31;75.35;99764.77;124665;1105;104162;-77
2021/03/04 06:09:29;;;;;;;58.70;30.83;;;;;;;4.39;74.77;99768.11;124754;1105;104143;-77
2021/03/04 06:12:06;;;;;;;52.00;29.80;;;;;;;4.48;74.85;99773.98;124707;1105;104220;-77
2021/03/04 06:14:34;;;;;;;53.57;30.03;;;;;;;4.65;74.57;99775.45;124651;1105;104217;-78
2021/03/04 06:17:19;;;;;;;54.77;29.60;;;;;;;4.84;74.45;99769.11;124712;1106;104326;-78
2021/03/04 06:19:56;;;;;;;57.23;29.80;;;;;;;5.07;74.46;99766.16;124743;1105;104183;-77
2021/03/04 06:22:28;;;;;;;54.00;29.83;;;;;;;5.13;73.95;99778.97;124712;1104;104178;-78
2021/03/04 06:24:57;;;;;;;50.67;27.87;;;;;;;5.16;73.43;99774.59;124662;1105;104124;-78
2021/03/04 06:27:33;;;;;;;53.07;30.00;;;;;;;5.20;73.95;99769.36;124702;1105;103693;-78
2021/03/04 06:30:04;;;;;;;55.73;30.20;;;;;;;5.38;73.37;99764.70;124684;1105;104256;-78
2021/03/04 06:32:31;;;;;;;52.83;29.57;;;;;;;5.69;73.51;99771.88;124699;1105;104165;-78
2021/03/04 06:35:03;;;;;;;51.03;29.77;;;;;;;5.97;72.76;99765.30;124635;1106;104230;-78
2021/03/04 06:37:31;;;;;;;54.23;30.77;;;;;;;6.07;72.01;99768.53;124646;1105;104110;-79
2021/03/04 06:39:58;;;;;;;53.37;30.37;;;;;;;6.09;71.81;99764.17;124639;1105;101982;-79
2021/03/04 06:42:25;;;;;;;46.60;28.00;;;;;;;6.05;72.25;99770.31;124668;1105;104485;-79
2021/03/04 06:44:55;;;;;;;51.90;29.67;;;;;;;6.01;72.11;99766.94;124681;1106;104214;-79
2021/03/04 06:47:24;;;;;;;51.20;30.43;;;;;;;6.08;71.78;99769.39;124719;1105;104146;-80
2021/03/04 06:49:53;;;;;;;52.57;29.83;;;;;;;6.12;71.89;99779.67;124721;1105;104217;-79
2021/03/04 06:52:39;;;;;;;47.43;28.47;;;;;;;6.03;71.48;99766.91;124686;1105;104730;-80
2021/03/04 06:55:11;;;;;;;48.20;28.43;;;;;;;5.96;72.08;99768.78;124655;1105;104280;-79
2021/03/04 06:57:38;;;;;;;50.75;28.30;;;;;;;5.97;71.84;99767.05;124811;1105;104169;-78
2021/03/04 07:00:27;;;;;;;53.23;29.83;;;;;;;5.92;72.14;99764.53;124732;1105;104179;-78
2021/03/04 07:02:57;;;;;;;49.77;28.87;;;;;;;5.83;72.26;99762.11;124717;1105;104249;-78
2021/03/04 07:05:25;;;;;;;52.60;30.80;;;;;;;5.78;72.40;99761.36;124689;1105;104286;-78
2021/03/04 07:07:57;;;;;;;51.37;29.43;;;;;;;5.84;72.22;99765.55;124646;1105;104175;-78
2021/03/04 07:10:27;;;;;;;55.63;30.80;;;;;;;5.99;71.83;99767.86;124682;1105;104056;-80
2021/03/04 07:12:57;;;;;;;55.27;30.13;;;;;;;6.08;71.68;99767.65;124761;1105;104227;-79
2021/03/04 07:15:25;;;;;;;51.93;29.90;;;;;;;6.28;71.59;99769.80;124721;1105;104178;-79
2021/03/04 07:17:52;;;;;;;52.67;30.93;;;;;;;6.53;71.15;99765.78;124696;1105;104251;-79
2021/03/04 07:20:22;;;;;;;51.13;29.10;;;;;;;6.44;71.36;99760.80;124746;1105;103986;-80
2021/03/04 07:23:10;;;;;;;57.33;31.23;;;;;;;6.35;71.62;99776.56;124796;1105;104338;-80
2021/03/04 07:25:40;;;;;;;56.27;32.27;;;;;;;6.30;71.37;99766.31;124767;1106;104124;-80
2021/03/04 07:28:10;;;;;;;56.60;30.93;;;;;;;6.29;71.51;99769.80;124761;1106;104149;-80
2021/03/04 07:30:37;;;;;;;49.83;29.67;;;;;;;6.31;70.82;99774.94;124737;1105;104156;-80
2021/03/04 07:33:07;;;;;;;49.03;29.43;;;;;;;6.37;70.96;99772.20;124827;1105;104245;-79
2021/03/04 07:35:34;;;;;;;53.03;31.27;;;;;;;6.44;71.12;99760.80;124930;1105;104121;-79
2021/03/04 07:38:02;;;;;;;57.63;30.70;;;;;;;6.36;71.35;99766.17;124887;1105;104220;-79
2021/03/04 07:40:29;;;;;;;56.03;32.60;;;;;;;6.25;71.33;99764.69;124886;1105;104259;-79
2021/03/04 07:43:03;;;;;;;51.70;30.60;;;;;;;6.14;71.72;99771.86;124823;1105;104309;-79
2021/03/04 07:45:31;;;;;;;50.63;29.70;;;;;;;6.01;71.32;99777.30;124836;1105;104223;-80
2021/03/04 07:48:08;;;;;;;52.80;32.30;;;;;;;5.92;72.18;99766.27;124831;1106;105263;-80
2021/03/04 07:50:36;;;;;;;55.43;31.47;;;;;;;5.92;71.72;99768.85;124778;1105;104066;-80
2021/03/04 07:53:23;;;;;;;57.20;32.20;;;;;;;5.96;72.53;99773.95;124563;1105;104251;-78
2021/03/04 07:55:51;;;;;;;57.40;31.87;;;;;;;6.08;71.98;99771.97;124689;1105;104701;-78
2021/03/04 07:58:18;;;;;;;56.67;32.63;;;;;;;6.26;72.06;99769.83;124621;1105;104127;-78
2021/03/04 08:00:46;;;;;;;50.30;29.53;;;;;;;6.55;71.84;99769.19;124685;1106;104149;-79
2021/03/04 08:03:14;;;;;;;53.90;30.93;;;;;;;6.93;71.12;99759.63;124670;1105;104192;-78
2021/03/04 08:05:43;;;;;;;49.00;29.77;;;;;;;7.25;70.45;99744.09;124551;1106;104293;-78
2021/03/04 08:08:15;;;;;;;52.40;31.20;;;;;;;7.60;70.42;99750.08;124714;1105;104236;-80
2021/03/04 08:10:54;;;;;;;54.43;33.73;;;;;;;8.04;68.89;99748.78;124635;1105;103993;-79
2021/03/04 08:13:35;;;;;;;59.17;35.60;;;;;;;8.47;67.90;99742.32;124704;1105;104121;-79
2021/03/04 08:16:12;;;;;;;63.27;39.60;;;;;;;8.43;66.61;99749.34;124704;1105;104165;-80
2021/03/04 08:18:41;;;;;;;60.13;36.50;;;;;;;8.34;67.20;99757.44;124816;1106;104245;-79
2021/03/04 08:21:09;;;;;;;62.43;40.37;;;;;;;8.43;65.65;99749.34;124762;1105;104199;-79
2021/03/04 08:23:50;;;;;;;65.00;42.17;;;;;;;8.28;65.77;99760.20;124655;1105;104435;-79
2021/03/04 08:26:26;;;;;;;66.25;44.30;;;;;;;8.11;65.90;99771.09;124726;1106;103954;-79
2021/03/04 08:29:07;;;;;;;66.33;44.80;;;;;;;7.93;66.22;99773.38;124767;1104;104239;-79
2021/03/04 08:31:34;;;;;;;70.17;45.73;;;;;;;7.67;65.98;99772.36;124715;1105;104104;-79
2021/03/04 08:34:02;;;;;;;68.53;44.67;;;;;;;7.49;65.48;99755.55;124813;1105;104271;-79
2021/03/04 08:36:43;;;;;;;74.97;47.40;;;;;;;7.24;65.68;99763.15;124711;1105;104111;-79
2021/03/04 08:39:11;;;;;;;74.50;47.60;;;;;;;7.05;65.59;99772.30;124725;1105;104156;-79
2021/03/04 08:41:39;;;;;;;71.05;47.60;;;;;;;7.02;65.82;99766.34;124708;1105;104229;-79
2021/03/04 08:44:11;;;;;;;70.37;46.80;;;;;;;7.36;65.27;99776.67;124727;1105;104131;-79
2021/03/04 08:46:46;;;;;;;65.57;43.33;;;;;;;8.02;64.91;99778.30;124664;1105;104351;-79
2021/03/04 08:49:18;;;;;;;64.97;43.17;;;;;;;8.34;64.00;99778.22;124687;1105;104211;-79
2021/03/04 08:51:46;;;;;;;65.93;43.43;;;;;;;8.32;62.83;99772.20;124669;1105;104207;-79
2021/03/04 08:54:21;;;;;;;65.10;43.40;;;;;;;8.03;63.05;99770.45;124659;1105;104290;-79
2021/03/04 08:57:05;;;;;;;71.43;47.13;;;;;;;7.71;63.66;99796.47;124706;1105;104254;-79
2021/03/04 08:59:33;;;;;;;66.27;42.87;;;;;;;7.41;64.52;99791.24;124691;1105;104261;-80
2021/03/04 09:02:00;;;;;;;64.27;42.13;;;;;;;7.09;64.80;99809.37;124679;1105;104262;-79
2021/03/04 09:04:28;;;;;;;59.00;40.77;;;;;;;6.82;64.73;99805.69;124674;1105;104220;-79
2021/03/04 09:06:56;;;;;;;64.03;41.90;;;;;;;6.57;65.22;99818.37;124682;1106;103996;-79
2021/03/04 09:09:29;;;;;;;68.87;42.60;;;;;;;6.34;65.44;99806.80;124709;1105;104163;-79
2021/03/04 09:11:59;;;;;;;65.97;41.77;;;;;;;6.08;66.51;99793.53;124726;1105;104269;-79
2021/03/04 09:14:28;;;;;;;66.77;42.63;;;;;;;5.92;66.40;99792.15;124651;1106;104389;-79
2021/03/04 09:16:55;;;;;;;66.67;42.03;;;;;;;5.73;66.93;99825.27;124724;1105;103960;-79
2021/03/04 09:19:29;;;;;;;70.90;43.50;;;;;;;5.52;67.92;99817.92;124732;1105;104226;-79
2021/03/04 09:21:58;;;;;;;60.37;38.20;;;;;;;5.35;67.90;99836.31;124716;1105;104185;-79
2021/03/04 09:24:32;;;;;;;63.53;39.80;;;;;;;5.25;68.75;99827.03;124659;1105;104208;-80
2021/03/04 09:27:05;;;;;;;59.27;36.93;;;;;;;5.05;67.83;99832.54;124724;1105;104328;-80
2021/03/04 09:29:33;;;;;;;57.77;36.37;;;;;;;4.90;68.40;99836.22;124802;1106;104315;-79
2021/03/04 09:32:00;;;;;;;59.87;35.67;;;;;;;4.81;68.34;99838.92;124707;1105;104133;-79
2021/03/04 09:34:43;;;;;;;55.57;35.03;;;;;;;4.76;68.52;99839.00;124648;1105;105267;-79
2021/03/04 09:37:21;;;;;;;66.15;40.15;;;;;;;4.75;68.86;99828.70;124661;1105;104242;-79
2021/03/04 09:39:54;;;;;;;65.60;37.77;;;;;;;4.71;68.03;99838.23;124640;1105;104169;-79
2021/03/04 09:42:36;;;;;;;65.57;39.07;;;;;;;4.68;68.31;99838.28;124678;1105;104158;-79
2021/03/04 09:45:11;;;;;;;59.73;37.27;;;;;;;4.68;68.37;99824.51;124682;1105;104159;-79
2021/03/04 09:47:50;;;;;;;60.37;36.60;;;;;;;4.68;67.71;99838.28;124677;1105;104232;-79
2021/03/04 09:50:24;;;;;;;58.50;35.53;;;;;;;4.68;67.43;99838.28;124744;1105;103172;-79
2021/03/04 09:53:08;;;;;;;56.57;34.87;;;;;;;4.64;67.74;99820.23;124639;1106;104271;-79
2021/03/04 09:55:40;;;;;;;52.70;32.43;;;;;;;4.54;67.34;99851.38;124690;1105;104054;-79
2021/03/04 09:58:12;;;;;;;52.23;32.00;;;;;;;4.50;67.82;99843.70;124700;1105;104191;-79
2021/03/04 10:00:40;;;;;;;56.97;34.47;;;;;;;4.47;68.25;99848.89;124680;1105;104146;-80
2021/03/04 10:03:39;;;;;;;55.27;32.90;;;;;;;4.45;68.39;99845.48;124615;1105;104393;-79
2021/03/04 10:06:20;;;;;;;56.47;33.90;;;;;;;4.40;67.57;99852.44;124654;1105;105808;-79
2021/03/04 10:08:53;;;;;;;56.50;32.50;;;;;;;4.34;68.49;99853.39;124677;1105;104131;-79
2021/03/04 10:11:23;;;;;;;56.03;34.30;;;;;;;4.31;68.41;99847.38;124727;1105;104229;-79
2021/03/04 10:13:51;;;;;;;56.10;33.63;;;;;;;4.27;68.67;99859.48;124724;1105;104219;-79
2021/03/04 10:16:18;;;;;;;52.70;31.63;;;;;;;4.26;68.53;99855.20;124712;1105;104226;-79
2021/03/04 10:18:48;;;;;;;55.53;33.17;;;;;;;4.19;68.64;99857.02;124630;1105;104326;-79
2021/03/04 10:21:19;;;;;;;50.23;31.00;;;;;;;4.13;68.83;99856.21;124846;1105;104229;-80
2021/03/04 10:23:48;;;;;;;45.53;28.67;;;;;;;4.13;68.67;99858.80;124680;1105;104226;-79
2021/03/04 10:26:16;;;;;;;54.13;32.27;;;;;;;4.09;68.52;99855.41;124689;1106;104223;-79
2021/03/04 10:28:43;;;;;;;48.10;28.93;;;;;;;4.06;68.56;99855.45;124724;1106;104899;-79
2021/03/04 10:31:11;;;;;;;54.73;32.77;;;;;;;4.03;69.08;99862.38;124695;1106;104264;-79
2021/03/04 10:33:39;;;;;;;48.10;29.60;;;;;;;3.99;69.38;99869.30;124660;1106;102545;-79
2021/03/04 10:36:06;;;;;;;48.40;28.60;;;;;;;3.98;69.41;99882.23;124684;1105;104198;-79
2021/03/04 10:38:33;;;;;;;51.47;31.00;;;;;;;3.93;69.06;99879.67;124719;1106;104670;-79
2021/03/04 10:41:02;;;;;;;46.70;28.90;;;;;;;3.90;69.52;99882.29;124682;1105;104300;-79
2021/03/04 10:43:30;;;;;;;49.90;29.23;;;;;;;3.90;69.79;99877.13;124694;1106;104310;-79
2021/03/04 10:45:57;;;;;;;50.20;30.50;;;;;;;3.87;69.54;99883.18;124782;1106;104621;-79
2021/03/04 10:48:25;;;;;;;54.30;31.67;;;;;;;3.86;69.67;99881.48;124683;1105;104114;-79
2021/03/04 10:50:53;;;;;;;46.67;28.30;;;;;;;3.85;70.18;99873.75;124750;1105;104142;-79
2021/03/04 10:53:20;;;;;;;49.60;29.27;;;;;;;3.82;69.93;99887.55;124723;1106;104392;-79
2021/03/04 10:55:47;;;;;;;48.60;29.47;;;;;;;3.82;70.34;99878.95;124648;1106;104290;-79
2021/03/04 10:58:15;;;;;;;53.00;30.93;;;;;;;3.82;70.35;99878.95;124690;1105;104101;-79
2021/03/04 11:00:44;;;;;;;49.80;29.00;;;;;;;3.83;69.82;99880.66;124765;1105;104281;-79
2021/03/04 11:03:11;;;;;;;54.73;31.83;;;;;;;3.83;70.29;99875.50;124727;1106;104192;-79
2021/03/04 11:05:39;;;;;;;53.97;31.67;;;;;;;3.80;70.10;99885.86;124756;1105;104318;-79
2021/03/04 11:08:08;;;;;;;57.35;31.25;;;;;;;3.79;69.97;99884.15;124686;1105;104188;-79
2021/03/04 11:10:35;;;;;;;48.93;29.17;;;;;;;3.79;69.76;99884.15;124749;1105;103989;-79
2021/03/04 11:13:02;;;;;;;47.30;27.47;;;;;;;3.78;69.86;99882.44;124736;1106;104134;-79
2021/03/04 11:15:29;;;;;;;48.63;29.07;;;;;;;3.76;69.43;99873.84;124706;1105;104213;-78
2021/03/04 11:17:57;;;;;;;46.80;27.07;;;;;;;3.76;69.82;99876.41;124677;1105;104249;-78
2021/03/04 11:20:25;;;;;;;48.73;27.80;;;;;;;3.75;69.98;99877.29;124661;1106;103285;-78